CYPE

Details ICAO CYPE (YPE)
Name PEACE RIVER
Region Canada
Timezone America/Edmonton (UTC-7.0)
Plans Departing 7
Arriving 5
Stats Elevation 1,873 ft / 571 m (AMSL)
Location 56.226804° -117.442782°
Runways 2
Magnetic Variation 16.561° E
Sunrise 2017-12-16 16:19:13 UTC / 2017-12-16 09:19:13 Local
Sunset 2017-12-16 23:14:40 UTC / 2017-12-16 16:14:40 Local
Advertisement - Login to hide

Runways

ID Width Length Bearing (true) Bearing (mag) Surface Threshold Offset Overrun Length
04 150 ft / 46 m 5,073 ft / 1,546 m 61.32° 44.76° Asphalt 0 ft / 0 m 0 ft / 0 m
08 150 ft / 46 m 1,904 ft / 580 m 102.32° 85.76° Grass 0 ft / 0 m 0 ft / 0 m
22 150 ft / 46 m 5,073 ft / 1,546 m 241.34° 224.78° Asphalt 0 ft / 0 m 0 ft / 0 m
26 150 ft / 46 m 1,904 ft / 580 m 282.33° 265.77° Grass 0 ft / 0 m 0 ft / 0 m

Map

Weather


0- 5 10 15 20 25 30 35+ Temperature / ° C

Clouds and Precipitation
Forecast for 2017-12-17 00:00 UTC. Updated 2 hours ago

Ground ~20,000 ft ~40,000 ft Winds

METAR

CYPE 162200Z 20003KT 15SM BKN250 M06/M10 A2970 RMK CI7 PRESFR SLP095

TAF

TAF CYPE 161839Z 1619/1707 VRB03KT P6SM FEW250 BECMG 1621/1623 24012KT FM170300 27020G30KT P6SM FEW080 BKN200 RMK NXT FCST BY 170100Z

Frequencies

Tower 122.30 MHz MF
Warning: Do not use this data for real-world aviation or navigation. No guarantee of current accuracy is given.